Time;durP1;ratioP1;P1;durP2;ratioP2;P2;SDS_P1;SDS_P2;PMS_P1;PMS_P2;Temp;Humidity;BMP_temperature;BMP_pressure;BME280_temperature;BME280_humidity;BME280_pressure;Samples;Min_cycle;Max_cycle;Signal;HPM_P1;HPM_P2
2022/10/09 00:01:22;;;;;;;8.85;3.95;;;;;;;;;;4986070;28;20521;-93
2022/10/09 00:03:50;;;;;;;17.10;3.70;;;;;;;;;;4971530;28;20446;-92
2022/10/09 00:06:19;;;;;;;17.17;3.92;;;;;;;;;;4974074;28;20030;-93
2022/10/09 00:08:45;;;;;;;10.43;2.72;;;;;;;;;;4971793;28;20030;-93
2022/10/09 00:11:13;;;;;;;11.75;3.05;;;;;;;;;;4957369;28;20113;-93
2022/10/09 00:13:39;;;;;;;20.45;3.88;;;;;;;;;;4971485;28;20040;-92
2022/10/09 00:16:06;;;;;;;16.70;3.47;;;;;;;;;;4966934;28;20034;-93
2022/10/09 00:18:33;;;;;;;19.20;3.88;;;;;;;;;;4972190;28;20058;-93
2022/10/09 00:20:59;;;;;;;12.65;3.10;;;;;;;;;;4972530;28;20045;-92
2022/10/09 00:23:25;;;;;;;13.45;2.90;;;;;;;;;;4971162;28;20539;-93
2022/10/09 00:25:59;;;;;;;16.63;3.50;;;;;;;;;;4955097;28;20034;-92
2022/10/09 00:28:26;;;;;;;15.90;3.22;;;;;;;;;;4971713;28;20026;-92
2022/10/09 00:30:53;;;;;;;9.57;3.60;;;;;;;;;;4972053;28;20022;-93
2022/10/09 00:33:19;;;;;;;20.95;3.30;;;;;;;;;;4973044;28;20026;-93
2022/10/09 00:35:46;;;;;;;10.45;3.38;;;;;;;;;;4969332;28;20038;-93
2022/10/09 00:38:12;;;;;;;16.00;2.97;;;;;;;;;;4954524;28;20554;-93
2022/10/09 00:40:38;;;;;;;11.00;3.90;;;;;;;;;;4953653;28;20228;-93
2022/10/09 00:43:16;;;;;;;20.52;3.50;;;;;;;;;;4959110;28;20054;-92
2022/10/09 00:45:48;;;;;;;15.43;3.35;;;;;;;;;;4970340;28;20033;-92
2022/10/09 00:48:16;;;;;;;12.10;3.50;;;;;;;;;;4963300;28;20655;-93
2022/10/09 00:50:54;;;;;;;8.98;3.03;;;;;;;;;;4952456;28;20031;-92
2022/10/09 00:53:21;;;;;;;14.45;5.72;;;;;;;;;;4971073;28;20030;-93
2022/10/09 00:55:47;;;;;;;19.15;3.35;;;;;;;;;;4984169;28;20027;-93
2022/10/09 00:58:20;;;;;;;16.13;3.53;;;;;;;;;;4969888;28;20262;-93
2022/10/09 01:00:46;;;;;;;21.65;4.55;;;;;;;;;;4959594;28;20137;-92
2022/10/09 01:03:12;;;;;;;10.38;3.22;;;;;;;;;;4984769;28;20046;-92
2022/10/09 01:05:49;;;;;;;8.02;3.50;;;;;;;;;;4965185;28;20089;-93
2022/10/09 01:08:31;;;;;;;11.18;3.45;;;;;;;;;;4981706;28;20501;-93
2022/10/09 01:11:14;;;;;;;10.88;3.10;;;;;;;;;;4988190;28;20106;-93
2022/10/09 01:13:51;;;;;;;14.73;3.72;;;;;;;;;;4978111;28;20042;-92
2022/10/09 01:16:25;;;;;;;10.60;3.50;;;;;;;;;;4985040;28;20113;-92
2022/10/09 01:19:04;;;;;;;11.52;3.35;;;;;;;;;;4983897;28;20027;-92
2022/10/09 01:21:40;;;;;;;8.35;2.88;;;;;;;;;;4969055;28;20190;-92
2022/10/09 01:24:06;;;;;;;;;;;;;;;;;;4972664;28;20041;-91
2022/10/09 01:26:49;;;;;;;9.85;3.63;;;;;;;;;;4967923;28;20159;-92
2022/10/09 01:29:18;;;;;;;9.68;3.47;;;;;;;;;;4981336;28;20022;-93
2022/10/09 01:31:46;;;;;;;21.50;2.95;;;;;;;;;;4971762;28;20026;-93
2022/10/09 01:34:14;;;;;;;16.20;3.22;;;;;;;;;;4971229;28;20088;-93
2022/10/09 01:36:41;;;;;;;11.23;2.97;;;;;;;;;;4972153;28;20026;-92
2022/10/09 01:39:09;;;;;;;12.15;3.22;;;;;;;;;;4968218;28;20034;-93
2022/10/09 01:41:35;;;;;;;10.30;3.67;;;;;;;;;;4974928;28;20042;-93
2022/10/09 01:44:01;;;;;;;10.88;3.22;;;;;;;;;;4956988;28;20041;-93
2022/10/09 01:46:28;;;;;;;20.25;3.42;;;;;;;;;;4968434;28;20058;-93
2022/10/09 01:49:07;;;;;;;13.32;3.70;;;;;;;;;;4968699;28;20039;-92
2022/10/09 01:51:38;;;;;;;16.02;3.00;;;;;;;;;;4969202;28;20038;-92
2022/10/09 01:54:06;;;;;;;20.83;5.82;;;;;;;;;;4965301;28;20033;-93
2022/10/09 01:56:34;;;;;;;12.90;3.20;;;;;;;;;;4973085;28;20133;-93
2022/10/09 01:59:11;;;;;;;11.20;2.72;;;;;;;;;;4972649;28;20069;-93
2022/10/09 02:01:38;;;;;;;13.43;4.10;;;;;;;;;;4971969;28;20041;-92
2022/10/09 02:04:05;;;;;;;13.57;3.22;;;;;;;;;;4974128;28;20046;-93
2022/10/09 02:06:31;;;;;;;13.20;3.03;;;;;;;;;;4987683;28;20034;-91
2022/10/09 02:08:58;;;;;;;8.77;3.38;;;;;;;;;;4963724;28;20058;-92
2022/10/09 02:11:29;;;;;;;12.60;3.13;;;;;;;;;;4976645;28;20039;-92
2022/10/09 02:13:55;;;;;;;17.75;2.90;;;;;;;;;;4973922;28;20350;-92
2022/10/09 02:16:42;;;;;;;13.05;3.28;;;;;;;;;;4972461;28;20851;-91
2022/10/09 02:19:11;;;;;;;14.73;3.30;;;;;;;;;;4994198;28;20316;-93
2022/10/09 02:21:39;;;;;;;16.63;4.22;;;;;;;;;;4976063;28;20066;-93
2022/10/09 02:24:07;;;;;;;13.25;3.22;;;;;;;;;;4989537;28;20046;-92
2022/10/09 02:26:33;;;;;;;11.73;3.72;;;;;;;;;;4976487;28;20035;-92
2022/10/09 02:28:59;;;;;;;14.90;3.45;;;;;;;;;;4974100;28;20046;-92
2022/10/09 02:31:27;;;;;;;13.60;3.35;;;;;;;;;;4960876;28;20156;-92
2022/10/09 02:33:57;;;;;;;16.05;3.90;;;;;;;;;;4972686;28;20069;-91
2022/10/09 02:36:23;;;;;;;9.70;3.05;;;;;;;;;;4974403;28;20034;-90
2022/10/09 02:38:49;;;;;;;13.30;3.97;;;;;;;;;;4986044;28;20074;-91
2022/10/09 02:41:15;;;;;;;14.75;3.72;;;;;;;;;;4973283;28;20098;-91
2022/10/09 02:43:41;;;;;;;16.85;4.03;;;;;;;;;;4963875;28;20034;-91
2022/10/09 02:46:07;;;;;;;9.43;4.07;;;;;;;;;;4955786;28;20676;-91
2022/10/09 02:48:33;;;;;;;10.70;3.38;;;;;;;;;;4969512;28;20278;-91
2022/10/09 02:51:00;;;;;;;14.40;4.07;;;;;;;;;;4966913;28;20085;-91
2022/10/09 02:53:26;;;;;;;10.05;3.25;;;;;;;;;;4973728;28;20035;-92
2022/10/09 02:55:52;;;;;;;12.02;4.28;;;;;;;;;;4975681;28;20034;-92
2022/10/09 02:58:18;;;;;;;14.07;3.20;;;;;;;;;;4976623;28;20082;-92
2022/10/09 03:00:48;;;;;;;18.25;3.55;;;;;;;;;;4973804;28;20034;-92
2022/10/09 03:03:14;;;;;;;11.93;3.70;;;;;;;;;;4972226;28;20031;-91
2022/10/09 03:05:40;;;;;;;17.30;3.83;;;;;;;;;;4958563;28;20027;-92
2022/10/09 03:08:06;;;;;;;18.13;4.25;;;;;;;;;;4972135;28;20092;-92
2022/10/09 03:10:33;;;;;;;7.85;3.72;;;;;;;;;;4973256;28;20034;-92
2022/10/09 03:12:59;;;;;;;8.45;3.83;;;;;;;;;;4985989;28;20394;-92
2022/10/09 03:15:25;;;;;;;18.65;3.60;;;;;;;;;;4955934;28;20033;-91
2022/10/09 03:17:57;;;;;;;14.05;3.45;;;;;;;;;;4987293;28;20045;-91
2022/10/09 03:20:23;;;;;;;20.15;4.97;;;;;;;;;;4974152;28;20105;-92
2022/10/09 03:22:49;;;;;;;12.82;3.70;;;;;;;;;;4974634;28;20077;-92
2022/10/09 03:25:15;;;;;;;10.75;3.92;;;;;;;;;;4973326;28;20034;-92
2022/10/09 03:27:41;;;;;;;12.82;4.10;;;;;;;;;;4957386;28;20031;-92
2022/10/09 03:30:07;;;;;;;17.80;3.88;;;;;;;;;;4972217;28;20041;-91
2022/10/09 03:32:33;;;;;;;14.23;3.40;;;;;;;;;;4973402;28;20030;-92
2022/10/09 03:34:59;;;;;;;10.45;2.85;;;;;;;;;;4972071;28;20038;-92
2022/10/09 03:37:25;;;;;;;5.55;3.03;;;;;;;;;;4952464;28;20053;-91
2022/10/09 03:39:51;;;;;;;10.18;3.55;;;;;;;;;;4974967;28;20042;-92
2022/10/09 03:42:17;;;;;;;10.35;3.45;;;;;;;;;;4971347;28;20077;-92
2022/10/09 03:44:43;;;;;;;9.75;4.43;;;;;;;;;;4970975;28;20039;-92
2022/10/09 03:47:09;;;;;;;11.15;4.05;;;;;;;;;;4968040;28;20027;-94
2022/10/09 03:49:36;;;;;;;16.92;4.55;;;;;;;;;;4968168;28;20039;-94
2022/10/09 03:52:02;;;;;;;17.98;5.15;;;;;;;;;;4971117;28;20031;-92
2022/10/09 03:54:28;;;;;;;16.45;4.72;;;;;;;;;;4970402;28;20370;-91
2022/10/09 03:56:54;;;;;;;17.27;4.93;;;;;;;;;;4967464;28;20038;-92
2022/10/09 03:59:20;;;;;;;13.90;4.75;;;;;;;;;;4975851;28;20481;-92
2022/10/09 04:01:46;;;;;;;12.45;4.90;;;;;;;;;;4973764;28;20044;-91
2022/10/09 04:04:12;;;;;;;13.10;4.78;;;;;;;;;;4971036;28;20517;-92
2022/10/09 04:06:38;;;;;;;9.88;4.55;;;;;;;;;;4974412;28;20458;-93
2022/10/09 04:09:04;;;;;;;11.63;4.20;;;;;;;;;;4954786;28;20029;-92
2022/10/09 04:11:30;;;;;;;13.07;5.35;;;;;;;;;;4971869;28;20030;-92
2022/10/09 04:13:56;;;;;;;11.90;4.40;;;;;;;;;;4958722;28;20087;-92
2022/10/09 04:16:22;;;;;;;11.07;4.13;;;;;;;;;;4972510;28;20049;-91
2022/10/09 04:18:48;;;;;;;11.50;4.55;;;;;;;;;;4972876;28;20065;-92
2022/10/09 04:21:14;;;;;;;11.93;3.80;;;;;;;;;;4972224;28;20060;-92
2022/10/09 04:23:40;;;;;;;13.90;4.35;;;;;;;;;;4968360;28;20046;-92
2022/10/09 04:26:06;;;;;;;9.95;3.58;;;;;;;;;;4973770;28;20041;-93
2022/10/09 04:28:33;;;;;;;7.95;3.53;;;;;;;;;;4957048;28;20039;-91
2022/10/09 04:30:59;;;;;;;7.82;3.03;;;;;;;;;;4971026;28;20767;-92
2022/10/09 04:33:25;;;;;;;6.95;3.40;;;;;;;;;;4971885;28;20041;-92
2022/10/09 04:35:52;;;;;;;14.63;3.53;;;;;;;;;;4970087;28;20066;-92
2022/10/09 04:38:19;;;;;;;12.02;4.05;;;;;;;;;;4970176;28;20038;-92
2022/10/09 04:40:45;;;;;;;10.65;3.72;;;;;;;;;;4972847;28;20042;-92
2022/10/09 04:43:11;;;;;;;8.02;3.55;;;;;;;;;;4981179;28;20038;-91
2022/10/09 04:45:40;;;;;;;9.20;4.22;;;;;;;;;;4973471;28;20437;-91
2022/10/09 04:48:06;;;;;;;6.35;3.55;;;;;;;;;;4984178;28;20483;-91
2022/10/09 04:50:32;;;;;;;9.45;4.10;;;;;;;;;;4953209;28;20098;-92
2022/10/09 04:52:58;;;;;;;6.22;3.83;;;;;;;;;;4963819;28;20031;-91
2022/10/09 04:55:24;;;;;;;9.20;4.18;;;;;;;;;;4966386;28;20038;-92
2022/10/09 04:57:50;;;;;;;11.57;4.60;;;;;;;;;;4970024;28;20140;-92
2022/10/09 05:00:16;;;;;;;14.65;5.13;;;;;;;;;;4966713;28;20031;-92
2022/10/09 05:02:42;;;;;;;9.25;4.30;;;;;;;;;;4954064;28;20046;-92
2022/10/09 05:05:09;;;;;;;10.27;4.95;;;;;;;;;;4956622;28;20034;-91
2022/10/09 05:07:35;;;;;;;8.98;4.32;;;;;;;;;;4956397;28;20038;-92
2022/10/09 05:10:01;;;;;;;13.93;5.55;;;;;;;;;;4956165;28;20475;-92
2022/10/09 05:12:33;;;;;;;16.40;4.90;;;;;;;;;;4973833;28;20046;-91
2022/10/09 05:14:59;;;;;;;14.65;5.32;;;;;;;;;;4968287;28;20041;-91
2022/10/09 05:17:25;;;;;;;15.60;5.15;;;;;;;;;;4966840;28;20161;-91
2022/10/09 05:19:51;;;;;;;11.60;4.90;;;;;;;;;;4958658;28;20880;-91
2022/10/09 05:22:17;;;;;;;13.85;4.82;;;;;;;;;;4970949;28;20034;-91
2022/10/09 05:24:43;;;;;;;13.45;5.28;;;;;;;;;;4954545;28;20125;-92
2022/10/09 05:27:09;;;;;;;10.35;5.35;;;;;;;;;;4987837;28;22887;-91
2022/10/09 05:29:35;;;;;;;9.52;4.72;;;;;;;;;;4969518;28;20376;-91
2022/10/09 05:32:01;;;;;;;14.40;5.45;;;;;;;;;;4968957;28;20340;-91
2022/10/09 05:34:27;;;;;;;17.92;6.03;;;;;;;;;;4956845;28;20042;-91
2022/10/09 05:36:53;;;;;;;16.05;6.47;;;;;;;;;;4952858;28;20446;-91
2022/10/09 05:39:19;;;;;;;14.02;5.72;;;;;;;;;;4976482;28;20042;-91
2022/10/09 05:41:46;;;;;;;16.50;7.65;;;;;;;;;;4971718;28;20553;-91
2022/10/09 05:44:12;;;;;;;19.98;7.47;;;;;;;;;;4972985;28;20065;-91
2022/10/09 05:46:38;;;;;;;17.65;6.93;;;;;;;;;;4955369;28;20065;-91
2022/10/09 05:49:05;;;;;;;22.48;6.82;;;;;;;;;;4973029;28;20035;-92
2022/10/09 05:51:38;;;;;;;15.63;6.80;;;;;;;;;;4971890;28;20041;-91
2022/10/09 05:54:05;;;;;;;18.65;6.72;;;;;;;;;;4971788;28;20060;-92
2022/10/09 05:56:33;;;;;;;10.82;5.68;;;;;;;;;;4986947;28;20084;-91
2022/10/09 05:59:03;;;;;;;12.88;5.97;;;;;;;;;;4968299;28;20065;-91
2022/10/09 06:01:34;;;;;;;9.23;6.07;;;;;;;;;;4970594;28;20398;-91
2022/10/09 06:04:00;;;;;;;16.63;6.30;;;;;;;;;;4986223;28;20061;-91
2022/10/09 06:06:28;;;;;;;13.15;5.22;;;;;;;;;;4967521;28;20038;-91
2022/10/09 06:08:54;;;;;;;13.15;6.10;;;;;;;;;;4972596;28;20497;-91
2022/10/09 06:11:21;;;;;;;11.48;5.45;;;;;;;;;;4954997;28;20043;-91
2022/10/09 06:13:48;;;;;;;14.00;5.50;;;;;;;;;;4974533;28;20039;-91
2022/10/09 06:16:15;;;;;;;13.27;6.00;;;;;;;;;;4980546;28;20483;-91
2022/10/09 06:18:42;;;;;;;11.32;5.63;;;;;;;;;;4970068;28;20508;-91
2022/10/09 06:21:08;;;;;;;15.70;6.38;;;;;;;;;;4967043;28;20055;-91
2022/10/09 06:23:35;;;;;;;13.65;5.80;;;;;;;;;;4983117;28;20039;-91
2022/10/09 06:26:05;;;;;;;10.48;5.80;;;;;;;;;;4967190;28;20577;-91
2022/10/09 06:28:32;;;;;;;11.93;5.10;;;;;;;;;;4970166;28;20673;-91
2022/10/09 06:31:05;;;;;;;16.30;6.53;;;;;;;;;;4967831;28;20339;-90
2022/10/09 06:33:33;;;;;;;14.43;6.50;;;;;;;;;;4982580;28;20031;-91
2022/10/09 06:36:03;;;;;;;14.50;6.93;;;;;;;;;;4970543;28;20033;-91
2022/10/09 06:38:29;;;;;;;13.98;6.20;;;;;;;;;;4971999;28;20022;-92
2022/10/09 06:40:55;;;;;;;18.60;6.40;;;;;;;;;;4954319;28;20030;-92
2022/10/09 06:43:22;;;;;;;13.25;5.95;;;;;;;;;;4986670;28;20448;-91
2022/10/09 06:45:48;;;;;;;13.18;6.40;;;;;;;;;;4952739;28;20034;-91
2022/10/09 06:48:14;;;;;;;13.13;5.63;;;;;;;;;;4953112;28;20066;-91
2022/10/09 06:50:40;;;;;;;12.43;5.93;;;;;;;;;;4981840;28;20031;-91
2022/10/09 06:53:06;;;;;;;15.13;5.43;;;;;;;;;;4970457;28;21546;-91
2022/10/09 06:55:32;;;;;;;9.25;5.53;;;;;;;;;;4956007;28;20026;-91
2022/10/09 06:57:58;;;;;;;8.70;5.55;;;;;;;;;;4976878;28;20086;-90
2022/10/09 07:00:24;;;;;;;13.80;5.38;;;;;;;;;;4969454;28;20495;-90
2022/10/09 07:02:50;;;;;;;10.63;6.05;;;;;;;;;;4966088;28;20572;-90
2022/10/09 07:05:17;;;;;;;10.10;4.90;;;;;;;;;;4957080;28;20057;-90
2022/10/09 07:07:43;;;;;;;7.57;5.32;;;;;;;;;;4974674;28;20375;-90
2022/10/09 07:10:09;;;;;;;8.73;5.45;;;;;;;;;;4961341;28;20046;-91
2022/10/09 07:12:35;;;;;;;11.40;5.78;;;;;;;;;;4974645;28;20031;-91
2022/10/09 07:15:03;;;;;;;11.85;5.78;;;;;;;;;;4978344;28;20044;-91
2022/10/09 07:17:29;;;;;;;10.50;5.32;;;;;;;;;;4971361;28;20446;-91
2022/10/09 07:19:55;;;;;;;15.57;6.35;;;;;;;;;;4973612;28;20050;-91
2022/10/09 07:22:21;;;;;;;15.88;7.22;;;;;;;;;;4971944;28;20041;-92
2022/10/09 07:24:49;;;;;;;13.23;6.80;;;;;;;;;;4988465;28;20541;-91
2022/10/09 07:27:15;;;;;;;14.70;7.93;;;;;;;;;;4974719;28;20022;-91
2022/10/09 07:29:41;;;;;;;15.15;8.35;;;;;;;;;;4971921;28;20034;-91
2022/10/09 07:32:07;;;;;;;16.80;8.65;;;;;;;;;;4958967;28;20057;-91
2022/10/09 07:34:33;;;;;;;16.38;9.00;;;;;;;;;;4974763;28;20038;-91
2022/10/09 07:37:00;;;;;;;19.08;9.55;;;;;;;;;;4959358;28;20058;-91
2022/10/09 07:39:34;;;;;;;18.25;9.50;;;;;;;;;;4974863;28;20030;-91
2022/10/09 07:42:00;;;;;;;18.13;9.38;;;;;;;;;;4951023;28;20090;-91
2022/10/09 07:44:26;;;;;;;21.13;10.60;;;;;;;;;;4972916;28;20038;-91
2022/10/09 07:46:52;;;;;;;16.80;10.15;;;;;;;;;;4956950;28;20483;-91
2022/10/09 07:49:19;;;;;;;16.55;8.90;;;;;;;;;;4972992;28;20045;-91
2022/10/09 07:51:45;;;;;;;13.57;8.80;;;;;;;;;;4974440;28;20390;-91
2022/10/09 07:54:11;;;;;;;14.52;7.45;;;;;;;;;;4960143;28;20046;-91
2022/10/09 07:56:37;;;;;;;13.45;7.07;;;;;;;;;;4959407;28;20510;-91
2022/10/09 07:59:04;;;;;;;14.07;6.82;;;;;;;;;;4972246;28;20138;-91
2022/10/09 08:01:31;;;;;;;13.65;6.53;;;;;;;;;;4973378;28;20045;-91
2022/10/09 08:03:58;;;;;;;11.35;5.63;;;;;;;;;;4992613;28;20033;-91
2022/10/09 08:06:24;;;;;;;10.40;5.53;;;;;;;;;;4959607;28;20036;-92
2022/10/09 08:08:51;;;;;;;11.77;5.90;;;;;;;;;;4972593;28;20075;-91
2022/10/09 08:11:17;;;;;;;9.10;5.38;;;;;;;;;;4969171;28;20030;-90
2022/10/09 08:13:44;;;;;;;8.52;4.35;;;;;;;;;;4972687;28;20030;-91
2022/10/09 08:16:11;;;;;;;23.13;5.90;;;;;;;;;;4972061;28;20034;-91
2022/10/09 08:18:37;;;;;;;6.30;3.65;;;;;;;;;;4971438;28;20046;-91
2022/10/09 08:21:04;;;;;;;6.40;3.70;;;;;;;;;;4966944;28;20030;-91
2022/10/09 08:23:30;;;;;;;9.52;3.03;;;;;;;;;;4967340;28;20085;-91
2022/10/09 08:25:57;;;;;;;5.88;3.85;;;;;;;;;;4957601;28;20041;-90
2022/10/09 08:28:23;;;;;;;6.03;3.13;;;;;;;;;;4956708;28;20066;-91
2022/10/09 08:30:49;;;;;;;7.15;5.15;;;;;;;;;;4970095;28;20026;-92
2022/10/09 08:33:19;;;;;;;10.27;3.50;;;;;;;;;;4952331;28;20187;-91
2022/10/09 08:35:46;;;;;;;4.88;2.70;;;;;;;;;;4974621;28;20037;-91
2022/10/09 08:38:12;;;;;;;7.45;2.47;;;;;;;;;;4955316;28;20030;-91
2022/10/09 08:40:53;;;;;;;8.27;2.58;;;;;;;;;;4960572;28;20493;-90
2022/10/09 08:43:23;;;;;;;9.02;3.17;;;;;;;;;;4968606;28;20030;-91
2022/10/09 08:45:50;;;;;;;9.45;2.92;;;;;;;;;;4977044;28;20034;-91
2022/10/09 08:48:22;;;;;;;6.88;2.45;;;;;;;;;;4976859;28;20030;-91
2022/10/09 08:50:52;;;;;;;9.43;3.30;;;;;;;;;;4980224;28;20030;-91
2022/10/09 08:53:36;;;;;;;6.35;2.92;;;;;;;;;;4986674;28;20027;-91
2022/10/09 08:56:04;;;;;;;11.05;3.53;;;;;;;;;;4972076;28;20141;-91
2022/10/09 08:58:32;;;;;;;8.05;3.42;;;;;;;;;;4976313;28;20053;-91
2022/10/09 09:01:15;;;;;;;8.93;4.28;;;;;;;;;;4973446;28;20026;-91
2022/10/09 09:03:45;;;;;;;9.55;2.78;;;;;;;;;;4972323;28;20031;-91
2022/10/09 09:06:11;;;;;;;5.03;2.55;;;;;;;;;;4969415;28;20034;-91
2022/10/09 09:08:47;;;;;;;7.25;2.95;;;;;;;;;;4988585;28;20035;-92
2022/10/09 09:11:20;;;;;;;2.92;2.20;;;;;;;;;;4966588;28;20045;-92
2022/10/09 09:13:52;;;;;;;9.13;2.75;;;;;;;;;;4970636;28;20042;-91
2022/10/09 09:16:28;;;;;;;7.75;2.85;;;;;;;;;;4968734;28;20031;-91
2022/10/09 09:19:13;;;;;;;10.60;2.97;;;;;;;;;;4973156;28;20034;-91
2022/10/09 09:21:53;;;;;;;8.30;2.92;;;;;;;;;;4972712;28;20530;-91
2022/10/09 09:24:20;;;;;;;8.10;2.70;;;;;;;;;;4971374;28;20423;-91
2022/10/09 09:26:51;;;;;;;10.13;2.85;;;;;;;;;;4966312;28;20058;-92
2022/10/09 09:29:21;;;;;;;8.57;2.75;;;;;;;;;;4967696;28;20125;-93
2022/10/09 09:31:47;;;;;;;7.70;2.88;;;;;;;;;;4988868;28;20560;-91
2022/10/09 09:34:34;;;;;;;8.45;3.10;;;;;;;;;;4954585;28;20417;-91
2022/10/09 09:37:00;;;;;;;;;;;;;;;;;;4969301;28;20038;-91
2022/10/09 09:39:28;;;;;;;11.20;3.00;;;;;;;;;;4976535;28;20346;-91
2022/10/09 09:41:58;;;;;;;5.88;2.40;;;;;;;;;;4969259;28;20466;-92
2022/10/09 09:44:25;;;;;;;8.60;2.30;;;;;;;;;;4975517;28;20465;-91
2022/10/09 09:46:52;;;;;;;7.10;2.97;;;;;;;;;;4976073;28;20030;-91
2022/10/09 09:49:20;;;;;;;6.68;2.30;;;;;;;;;;4971172;28;20046;-92
2022/10/09 09:51:46;;;;;;;10.20;3.63;;;;;;;;;;4969635;28;20030;-91
2022/10/09 09:54:21;;;;;;;7.72;2.80;;;;;;;;;;4986738;28;20038;-91
2022/10/09 09:56:48;;;;;;;6.10;2.40;;;;;;;;;;4983947;28;20077;-92
2022/10/09 09:59:33;;;;;;;6.05;3.15;;;;;;;;;;4974415;28;20564;-92
2022/10/09 10:02:03;;;;;;;9.23;2.65;;;;;;;;;;4985812;28;20041;-92
2022/10/09 10:04:29;;;;;;;7.75;2.55;;;;;;;;;;4985852;28;20038;-92
2022/10/09 10:06:56;;;;;;;14.00;3.20;;;;;;;;;;4972808;28;20506;-92
2022/10/09 10:09:22;;;;;;;6.25;2.80;;;;;;;;;;4970963;28;20550;-92
2022/10/09 10:12:02;;;;;;;6.25;2.83;;;;;;;;;;4966378;28;20038;-91
2022/10/09 10:14:29;;;;;;;7.00;2.35;;;;;;;;;;4967171;28;20066;-92
2022/10/09 10:16:56;;;;;;;5.80;2.45;;;;;;;;;;4973038;28;20064;-92
2022/10/09 10:19:24;;;;;;;7.80;2.55;;;;;;;;;;4970442;28;20035;-92
2022/10/09 10:22:07;;;;;;;11.18;2.80;;;;;;;;;;4970326;28;20542;-92
2022/10/09 10:24:42;;;;;;;9.05;2.50;;;;;;;;;;4971797;28;20450;-92
2022/10/09 10:27:07;;;;;;;4.33;2.30;;;;;;;;;;4984277;28;20119;-92
2022/10/09 10:29:38;;;;;;;9.20;2.40;;;;;;;;;;4972227;28;20034;-92
2022/10/09 10:32:11;;;;;;;6.35;2.53;;;;;;;;;;4969752;28;20054;-92
2022/10/09 10:34:46;;;;;;;11.98;3.17;;;;;;;;;;4982209;28;20037;-92
2022/10/09 10:37:15;;;;;;;8.57;2.65;;;;;;;;;;4970820;28;20034;-92
2022/10/09 10:39:49;;;;;;;8.75;3.40;;;;;;;;;;4986735;28;20058;-92
2022/10/09 10:42:28;;;;;;;8.83;3.37;;;;;;;;;;4972150;28;20023;-92
2022/10/09 10:45:09;;;;;;;7.30;2.53;;;;;;;;;;4987392;28;20038;-92
2022/10/09 10:47:37;;;;;;;6.95;2.58;;;;;;;;;;4975761;28;20039;-92
2022/10/09 10:50:03;;;;;;;8.18;2.50;;;;;;;;;;4974789;28;20108;-92
2022/10/09 10:52:44;;;;;;;9.68;3.65;;;;;;;;;;4976189;28;20142;-92
2022/10/09 10:55:16;;;;;;;10.63;3.42;;;;;;;;;;4973109;28;20094;-93
2022/10/09 10:57:50;;;;;;;6.45;2.55;;;;;;;;;;4974926;28;20030;-92
2022/10/09 11:00:25;;;;;;;8.52;3.13;;;;;;;;;;4969991;28;20038;-92
2022/10/09 11:02:51;;;;;;;14.80;2.63;;;;;;;;;;4973584;28;20034;-92
2022/10/09 11:05:17;;;;;;;6.30;2.30;;;;;;;;;;4970619;28;20031;-91
2022/10/09 11:07:55;;;;;;;5.00;2.47;;;;;;;;;;4972405;28;20421;-94
2022/10/09 11:10:27;;;;;;;7.13;2.50;;;;;;;;;;4972969;28;20030;-92
2022/10/09 11:13:11;;;;;;;4.47;2.47;;;;;;;;;;4967448;28;20037;-92
2022/10/09 11:15:56;;;;;;;9.13;2.55;;;;;;;;;;4970269;28;20038;-92
2022/10/09 11:18:41;;;;;;;4.25;2.10;;;;;;;;;;4990090;28;20061;-92
2022/10/09 11:21:42;;;;;;;4.10;2.40;;;;;;;;;;4968709;28;20027;-91
2022/10/09 11:24:27;;;;;;;10.00;3.60;;;;;;;;;;4927414;29;20286;-92
2022/10/09 11:27:10;;;;;;;9.25;3.03;;;;;;;;;;4967552;28;20050;-92
2022/10/09 11:29:41;;;;;;;8.10;2.67;;;;;;;;;;4983240;28;20474;-91
2022/10/09 11:32:20;;;;;;;11.48;2.20;;;;;;;;;;4972122;28;20061;-91
2022/10/09 11:34:55;;;;;;;9.27;2.25;;;;;;;;;;4983919;28;20034;-91
2022/10/09 11:37:24;;;;;;;7.93;3.13;;;;;;;;;;4968028;28;20030;-91
2022/10/09 11:39:50;;;;;;;9.18;3.80;;;;;;;;;;4970169;28;20034;-92
2022/10/09 11:42:19;;;;;;;5.53;2.28;;;;;;;;;;4973874;28;20030;-90
2022/10/09 11:45:04;;;;;;;5.75;2.58;;;;;;;;;;4971490;28;20478;-91
2022/10/09 11:47:45;;;;;;;8.20;2.35;;;;;;;;;;4975554;28;20525;-92
2022/10/09 11:50:17;;;;;;;8.52;2.10;;;;;;;;;;4969887;28;20148;-92
2022/10/09 11:52:54;;;;;;;9.95;3.25;;;;;;;;;;4968180;28;20038;-92
2022/10/09 11:55:20;;;;;;;4.22;2.03;;;;;;;;;;4969029;28;20519;-92
2022/10/09 11:57:47;;;;;;;6.32;2.08;;;;;;;;;;4975571;28;20123;-92
2022/10/09 12:00:27;;;;;;;6.05;1.98;;;;;;;;;;4973740;28;20042;-93
2022/10/09 12:02:58;;;;;;;8.25;1.60;;;;;;;;;;4972789;28;20030;-92
2022/10/09 12:05:44;;;;;;;7.95;2.00;;;;;;;;;;4977115;28;20034;-92
2022/10/09 12:08:10;;;;;;;9.85;2.35;;;;;;;;;;4987527;28;20034;-93
2022/10/09 12:10:38;;;;;;;5.55;1.65;;;;;;;;;;4978207;28;20098;-92
2022/10/09 12:13:10;;;;;;;4.32;1.60;;;;;;;;;;4973219;28;20056;-92
2022/10/09 12:15:39;;;;;;;6.03;1.63;;;;;;;;;;4973507;28;20033;-92
2022/10/09 12:18:25;;;;;;;7.78;1.90;;;;;;;;;;4973566;28;20029;-92
2022/10/09 12:20:52;;;;;;;5.43;1.98;;;;;;;;;;4985010;28;20035;-92
2022/10/09 12:23:24;;;;;;;6.25;1.75;;;;;;;;;;4977345;28;20046;-92
2022/10/09 12:25:50;;;;;;;11.88;1.65;;;;;;;;;;4988275;28;20031;-91
2022/10/09 12:28:20;;;;;;;6.55;1.80;;;;;;;;;;4985030;28;20022;-91
2022/10/09 12:31:08;;;;;;;6.88;1.60;;;;;;;;;;4974242;28;20022;-93
2022/10/09 12:36:25;;;;;;;5.18;1.83;;;;;;;;;;4987580;28;20031;-93
2022/10/09 12:39:04;;;;;;;6.78;2.05;;;;;;;;;;4971928;28;20030;-93
2022/10/09 12:41:32;;;;;;;7.28;1.42;;;;;;;;;;4981900;28;20038;-93
2022/10/09 12:44:07;;;;;;;6.53;1.77;;;;;;;;;;4973606;28;20034;-94
2022/10/09 12:46:38;;;;;;;6.28;1.75;;;;;;;;;;4978222;28;20045;-92
2022/10/09 12:49:07;;;;;;;3.70;1.38;;;;;;;;;;4977359;28;20026;-93
2022/10/09 12:51:40;;;;;;;5.65;1.83;;;;;;;;;;4976993;28;20038;-93
2022/10/09 12:54:20;;;;;;;4.22;1.70;;;;;;;;;;4973042;28;20030;-92
2022/10/09 12:56:47;;;;;;;8.63;2.42;;;;;;;;;;4974132;28;20030;-92
2022/10/09 12:59:16;;;;;;;5.85;2.10;;;;;;;;;;4965794;28;20084;-93
2022/10/09 13:01:42;;;;;;;9.85;1.83;;;;;;;;;;4972434;28;20730;-93
2022/10/09 13:04:23;;;;;;;7.45;2.00;;;;;;;;;;4975254;28;20041;-92
2022/10/09 13:06:50;;;;;;;11.88;2.03;;;;;;;;;;4970695;28;20039;-93
2022/10/09 13:09:23;;;;;;;12.60;2.60;;;;;;;;;;4994353;28;20038;-93
2022/10/09 13:11:58;;;;;;;7.65;2.03;;;;;;;;;;4970256;28;20038;-93
2022/10/09 13:14:26;;;;;;;4.95;1.60;;;;;;;;;;4987720;28;20039;-92
2022/10/09 13:16:53;;;;;;;4.55;1.98;;;;;;;;;;4974336;28;20467;-93
2022/10/09 13:19:26;;;;;;;8.13;1.95;;;;;;;;;;4971076;28;20104;-93
2022/10/09 13:22:07;;;;;;;7.10;2.63;;;;;;;;;;4988478;28;20101;-92
2022/10/09 13:24:34;;;;;;;7.68;2.00;;;;;;;;;;4988591;28;20042;-93
2022/10/09 13:27:02;;;;;;;7.78;2.22;;;;;;;;;;4960100;28;20034;-93
2022/10/09 13:29:28;;;;;;;4.60;1.85;;;;;;;;;;4972927;28;20050;-93
2022/10/09 13:31:54;;;;;;;6.68;1.60;;;;;;;;;;4958171;28;20031;-93
2022/10/09 13:34:22;;;;;;;9.63;2.50;;;;;;;;;;4970444;28;20573;-93
2022/10/09 13:36:48;;;;;;;7.75;2.30;;;;;;;;;;4958449;28;20027;-93
2022/10/09 13:39:15;;;;;;;8.38;2.53;;;;;;;;;;4961324;28;21667;-93
2022/10/09 13:41:42;;;;;;;6.22;2.15;;;;;;;;;;4957683;28;20046;-93
2022/10/09 13:44:08;;;;;;;14.25;3.20;;;;;;;;;;4965770;28;20035;-93
2022/10/09 13:46:34;;;;;;;6.03;2.05;;;;;;;;;;4985818;28;20034;-92
2022/10/09 13:49:00;;;;;;;6.97;2.30;;;;;;;;;;4987278;28;20027;-91
2022/10/09 13:51:28;;;;;;;11.98;2.38;;;;;;;;;;4971617;28;20026;-92
2022/10/09 13:53:54;;;;;;;9.65;2.03;;;;;;;;;;4958583;28;20100;-92
2022/10/09 13:56:20;;;;;;;13.32;2.55;;;;;;;;;;4960025;28;20097;-92
2022/10/09 13:58:46;;;;;;;11.52;3.05;;;;;;;;;;4978065;28;20038;-92
2022/10/09 14:01:12;;;;;;;8.70;2.10;;;;;;;;;;4958772;28;20045;-92
2022/10/09 14:03:39;;;;;;;7.32;2.42;;;;;;;;;;4959844;28;20163;-92
2022/10/09 14:06:05;;;;;;;5.03;2.15;;;;;;;;;;4971830;28;20042;-92
2022/10/09 14:08:31;;;;;;;8.18;1.83;;;;;;;;;;4984835;28;20115;-91
2022/10/09 14:11:00;;;;;;;8.48;2.97;;;;;;;;;;4979008;28;20035;-92
2022/10/09 14:13:27;;;;;;;10.95;2.35;;;;;;;;;;4953415;28;20035;-91
2022/10/09 14:15:53;;;;;;;5.97;1.88;;;;;;;;;;4991832;28;20030;-91
2022/10/09 14:18:19;;;;;;;8.80;2.90;;;;;;;;;;4991016;28;20022;-92
2022/10/09 14:20:46;;;;;;;9.13;2.22;;;;;;;;;;4992916;28;20023;-92
2022/10/09 14:23:14;;;;;;;4.85;2.35;;;;;;;;;;4962122;28;20359;-92
2022/10/09 14:25:40;;;;;;;8.15;2.30;;;;;;;;;;4959095;28;20039;-91
2022/10/09 14:28:07;;;;;;;4.90;1.98;;;;;;;;;;4975245;28;20149;-92
2022/10/09 14:30:38;;;;;;;9.20;2.28;;;;;;;;;;4976168;28;20066;-92
2022/10/09 14:33:04;;;;;;;6.35;2.10;;;;;;;;;;4977548;28;20030;-92
2022/10/09 14:35:30;;;;;;;12.52;2.10;;;;;;;;;;4976835;28;20030;-92
2022/10/09 14:37:58;;;;;;;5.07;1.90;;;;;;;;;;4961690;28;20038;-92
2022/10/09 14:40:26;;;;;;;7.43;2.50;;;;;;;;;;4968464;28;20030;-92
2022/10/09 14:42:52;;;;;;;5.88;3.03;;;;;;;;;;4973115;28;20058;-93
2022/10/09 14:45:18;;;;;;;11.85;2.20;;;;;;;;;;4977404;28;20044;-92
2022/10/09 14:47:45;;;;;;;6.38;2.10;;;;;;;;;;4960962;28;20119;-92
2022/10/09 14:50:11;;;;;;;8.15;2.30;;;;;;;;;;4975838;28;20042;-91